sensor_id;sensor_type;location;lat;lon;timestamp;P1;durP1;ratioP1;P2;durP2;ratioP2
70806;SDS011;58882;52.170;5.386;2022-07-03T00:00:00;5.80;;;3.33;;
70806;SDS011;58882;52.170;5.386;2022-07-03T00:02:49;9.35;;;3.70;;
70806;SDS011;58882;52.170;5.386;2022-07-03T00:05:29;7.30;;;3.50;;
70806;SDS011;58882;52.170;5.386;2022-07-03T00:08:16;5.82;;;3.22;;
70806;SDS011;58882;52.170;5.386;2022-07-03T00:10:56;10.18;;;3.80;;
70806;SDS011;58882;52.170;5.386;2022-07-03T00:13:43;7.13;;;2.85;;
70806;SDS011;58882;52.170;5.386;2022-07-03T00:16:23;11.07;;;3.17;;
70806;SDS011;58882;52.170;5.386;2022-07-03T00:19:10;9.68;;;3.20;;
70806;SDS011;58882;52.170;5.386;2022-07-03T00:21:55;6.90;;;3.10;;
70806;SDS011;58882;52.170;5.386;2022-07-03T00:27:40;5.55;;;3.00;;
70806;SDS011;58882;52.170;5.386;2022-07-03T00:30:30;8.00;;;3.10;;
70806;SDS011;58882;52.170;5.386;2022-07-03T00:33:26;6.47;;;3.30;;
70806;SDS011;58882;52.170;5.386;2022-07-03T00:36:09;9.73;;;3.50;;
70806;SDS011;58882;52.170;5.386;2022-07-03T00:38:58;7.75;;;3.25;;
70806;SDS011;58882;52.170;5.386;2022-07-03T00:41:38;6.53;;;3.20;;
70806;SDS011;58882;52.170;5.386;2022-07-03T00:44:30;7.40;;;3.28;;
70806;SDS011;58882;52.170;5.386;2022-07-03T00:47:08;5.05;;;2.88;;
70806;SDS011;58882;52.170;5.386;2022-07-03T00:50:07;7.03;;;3.05;;
70806;SDS011;58882;52.170;5.386;2022-07-03T00:52:47;7.90;;;3.20;;
70806;SDS011;58882;52.170;5.386;2022-07-03T00:55:38;8.65;;;3.42;;
70806;SDS011;58882;52.170;5.386;2022-07-03T00:58:19;8.32;;;3.40;;
70806;SDS011;58882;52.170;5.386;2022-07-03T01:01:07;8.20;;;3.00;;
70806;SDS011;58882;52.170;5.386;2022-07-03T01:03:43;7.55;;;2.90;;
70806;SDS011;58882;52.170;5.386;2022-07-03T01:06:40;6.10;;;2.78;;
70806;SDS011;58882;52.170;5.386;2022-07-03T01:10:25;7.88;;;3.10;;
70806;SDS011;58882;52.170;5.386;2022-07-03T01:13:11;5.15;;;2.70;;
70806;SDS011;58882;52.170;5.386;2022-07-03T01:25:13;7.57;;;2.95;;
70806;SDS011;58882;52.170;5.386;2022-07-03T01:28:11;6.25;;;2.67;;
70806;SDS011;58882;52.170;5.386;2022-07-03T01:31:01;6.10;;;2.50;;
70806;SDS011;58882;52.170;5.386;2022-07-03T01:33:41;8.15;;;2.90;;
70806;SDS011;58882;52.170;5.386;2022-07-03T01:36:35;7.22;;;2.50;;
70806;SDS011;58882;52.170;5.386;2022-07-03T01:39:20;6.82;;;2.40;;
70806;SDS011;58882;52.170;5.386;2022-07-03T01:45:07;4.38;;;2.00;;
70806;SDS011;58882;52.170;5.386;2022-07-03T01:48:04;6.00;;;2.15;;
70806;SDS011;58882;52.170;5.386;2022-07-03T01:50:45;8.15;;;2.72;;
70806;SDS011;58882;52.170;5.386;2022-07-03T01:53:33;8.85;;;2.17;;
70806;SDS011;58882;52.170;5.386;2022-07-03T01:56:14;7.57;;;2.00;;
70806;SDS011;58882;52.170;5.386;2022-07-03T01:59:02;8.45;;;2.30;;
70806;SDS011;58882;52.170;5.386;2022-07-03T02:05:00;8.88;;;2.17;;
70806;SDS011;58882;52.170;5.386;2022-07-03T02:07:41;6.43;;;2.45;;
70806;SDS011;58882;52.170;5.386;2022-07-03T02:10:39;6.20;;;2.78;;
70806;SDS011;58882;52.170;5.386;2022-07-03T02:13:27;5.88;;;2.25;;
70806;SDS011;58882;52.170;5.386;2022-07-03T02:16:16;7.07;;;2.80;;
70806;SDS011;58882;52.170;5.386;2022-07-03T02:19:09;4.85;;;2.20;;
70806;SDS011;58882;52.170;5.386;2022-07-03T02:21:51;5.07;;;2.50;;
70806;SDS011;58882;52.170;5.386;2022-07-03T02:24:43;4.50;;;2.20;;
70806;SDS011;58882;52.170;5.386;2022-07-03T02:27:22;5.38;;;2.50;;
70806;SDS011;58882;52.170;5.386;2022-07-03T02:30:18;5.38;;;2.47;;
70806;SDS011;58882;52.170;5.386;2022-07-03T02:33:12;9.32;;;2.85;;
70806;SDS011;58882;52.170;5.386;2022-07-03T02:36:01;5.65;;;2.33;;
70806;SDS011;58882;52.170;5.386;2022-07-03T02:38:48;11.77;;;2.40;;
70806;SDS011;58882;52.170;5.386;2022-07-03T02:41:42;4.65;;;2.20;;
70806;SDS011;58882;52.170;5.386;2022-07-03T02:44:45;8.63;;;2.50;;
70806;SDS011;58882;52.170;5.386;2022-07-03T02:47:27;19.45;;;2.85;;
70806;SDS011;58882;52.170;5.386;2022-07-03T02:50:24;7.95;;;2.40;;
70806;SDS011;58882;52.170;5.386;2022-07-03T02:53:09;5.43;;;2.22;;
70806;SDS011;58882;52.170;5.386;2022-07-03T02:56:13;5.00;;;2.40;;
70806;SDS011;58882;52.170;5.386;2022-07-03T02:59:03;6.60;;;2.30;;
70806;SDS011;58882;52.170;5.386;2022-07-03T03:01:55;4.88;;;2.40;;
70806;SDS011;58882;52.170;5.386;2022-07-03T03:04:44;7.43;;;2.20;;
70806;SDS011;58882;52.170;5.386;2022-07-03T03:10:39;8.32;;;2.50;;
70806;SDS011;58882;52.170;5.386;2022-07-03T03:13:26;6.82;;;2.13;;
70806;SDS011;58882;52.170;5.386;2022-07-03T03:16:10;7.78;;;2.28;;
70806;SDS011;58882;52.170;5.386;2022-07-03T03:19:04;4.28;;;1.98;;
70806;SDS011;58882;52.170;5.386;2022-07-03T03:21:46;4.63;;;2.30;;
70806;SDS011;58882;52.170;5.386;2022-07-03T03:24:47;3.78;;;1.92;;
70806;SDS011;58882;52.170;5.386;2022-07-03T03:27:27;5.15;;;2.00;;
70806;SDS011;58882;52.170;5.386;2022-07-03T03:30:21;4.93;;;1.90;;
70806;SDS011;58882;52.170;5.386;2022-07-03T03:33:15;6.35;;;2.30;;
70806;SDS011;58882;52.170;5.386;2022-07-03T03:35:56;6.90;;;2.15;;
70806;SDS011;58882;52.170;5.386;2022-07-03T03:38:45;5.53;;;1.77;;
70806;SDS011;58882;52.170;5.386;2022-07-03T03:41:26;3.75;;;1.92;;
70806;SDS011;58882;52.170;5.386;2022-07-03T03:44:20;4.93;;;2.30;;
70806;SDS011;58882;52.170;5.386;2022-07-03T03:47:00;4.80;;;2.13;;
70806;SDS011;58882;52.170;5.386;2022-07-03T03:49:47;6.97;;;2.13;;
70806;SDS011;58882;52.170;5.386;2022-07-03T03:52:20;5.50;;;2.10;;
70806;SDS011;58882;52.170;5.386;2022-07-03T03:55:14;4.22;;;2.08;;
70806;SDS011;58882;52.170;5.386;2022-07-03T03:57:48;3.95;;;1.98;;
70806;SDS011;58882;52.170;5.386;2022-07-03T04:00:42;5.22;;;2.03;;
70806;SDS011;58882;52.170;5.386;2022-07-03T04:03:22;6.95;;;2.08;;
70806;SDS011;58882;52.170;5.386;2022-07-03T04:06:21;5.50;;;1.98;;
70806;SDS011;58882;52.170;5.386;2022-07-03T04:08:54;4.25;;;2.10;;
70806;SDS011;58882;52.170;5.386;2022-07-03T04:11:48;7.80;;;2.00;;
70806;SDS011;58882;52.170;5.386;2022-07-03T04:14:42;6.22;;;2.08;;
70806;SDS011;58882;52.170;5.386;2022-07-03T04:17:22;4.90;;;1.92;;
70806;SDS011;58882;52.170;5.386;2022-07-03T04:20:09;5.97;;;1.73;;
70806;SDS011;58882;52.170;5.386;2022-07-03T04:22:49;3.75;;;1.70;;
70806;SDS011;58882;52.170;5.386;2022-07-03T04:25:36;7.13;;;1.92;;
70806;SDS011;58882;52.170;5.386;2022-07-03T04:28:16;3.75;;;1.67;;
70806;SDS011;58882;52.170;5.386;2022-07-03T04:31:03;5.22;;;2.10;;
70806;SDS011;58882;52.170;5.386;2022-07-03T04:33:43;8.07;;;2.10;;
70806;SDS011;58882;52.170;5.386;2022-07-03T04:36:30;6.00;;;1.75;;
70806;SDS011;58882;52.170;5.386;2022-07-03T04:39:10;4.18;;;1.70;;
70806;SDS011;58882;52.170;5.386;2022-07-03T04:42:04;3.90;;;1.73;;
70806;SDS011;58882;52.170;5.386;2022-07-03T04:44:37;6.20;;;1.60;;
70806;SDS011;58882;52.170;5.386;2022-07-03T04:47:31;5.57;;;1.60;;
70806;SDS011;58882;52.170;5.386;2022-07-03T04:50:11;6.63;;;1.95;;
70806;SDS011;58882;52.170;5.386;2022-07-03T04:52:58;4.40;;;1.77;;
70806;SDS011;58882;52.170;5.386;2022-07-03T04:55:38;3.83;;;1.35;;
70806;SDS011;58882;52.170;5.386;2022-07-03T04:58:25;5.18;;;1.85;;
70806;SDS011;58882;52.170;5.386;2022-07-03T05:01:05;4.45;;;1.58;;
70806;SDS011;58882;52.170;5.386;2022-07-03T05:03:59;8.40;;;1.70;;
70806;SDS011;58882;52.170;5.386;2022-07-03T05:06:39;5.15;;;1.60;;
70806;SDS011;58882;52.170;5.386;2022-07-03T05:09:26;4.75;;;1.80;;
70806;SDS011;58882;52.170;5.386;2022-07-03T05:12:06;6.25;;;1.63;;
70806;SDS011;58882;52.170;5.386;2022-07-03T05:15:00;3.63;;;1.50;;
70806;SDS011;58882;52.170;5.386;2022-07-03T05:17:33;7.50;;;1.50;;
70806;SDS011;58882;52.170;5.386;2022-07-03T05:20:27;4.75;;;1.52;;
70806;SDS011;58882;52.170;5.386;2022-07-03T05:23:07;2.53;;;1.42;;
70806;SDS011;58882;52.170;5.386;2022-07-03T05:25:54;10.65;;;1.50;;
70806;SDS011;58882;52.170;5.386;2022-07-03T05:28:28;5.50;;;1.42;;
70806;SDS011;58882;52.170;5.386;2022-07-03T05:31:22;10.68;;;2.10;;
70806;SDS011;58882;52.170;5.386;2022-07-03T05:34:16;4.80;;;1.20;;
70806;SDS011;58882;52.170;5.386;2022-07-03T05:36:56;3.35;;;1.35;;
70806;SDS011;58882;52.170;5.386;2022-07-03T05:39:43;6.45;;;1.50;;
70806;SDS011;58882;52.170;5.386;2022-07-03T05:42:17;7.60;;;1.80;;
70806;SDS011;58882;52.170;5.386;2022-07-03T05:45:11;4.57;;;1.40;;
70806;SDS011;58882;52.170;5.386;2022-07-03T05:47:44;5.53;;;1.35;;
70806;SDS011;58882;52.170;5.386;2022-07-03T05:50:41;4.80;;;1.33;;
70806;SDS011;58882;52.170;5.386;2022-07-03T05:53:21;4.55;;;1.15;;
70806;SDS011;58882;52.170;5.386;2022-07-03T05:56:08;5.22;;;1.20;;
70806;SDS011;58882;52.170;5.386;2022-07-03T05:58:48;7.63;;;1.48;;
70806;SDS011;58882;52.170;5.386;2022-07-03T06:01:35;2.70;;;1.30;;
70806;SDS011;58882;52.170;5.386;2022-07-03T06:04:15;7.65;;;1.40;;
70806;SDS011;58882;52.170;5.386;2022-07-03T06:07:02;7.53;;;1.65;;
70806;SDS011;58882;52.170;5.386;2022-07-03T06:09:42;4.78;;;1.40;;
70806;SDS011;58882;52.170;5.386;2022-07-03T06:12:30;2.85;;;1.17;;
70806;SDS011;58882;52.170;5.386;2022-07-03T06:15:10;3.47;;;1.20;;
70806;SDS011;58882;52.170;5.386;2022-07-03T06:17:57;4.07;;;1.35;;
70806;SDS011;58882;52.170;5.386;2022-07-03T06:20:37;5.45;;;1.02;;
70806;SDS011;58882;52.170;5.386;2022-07-03T06:23:24;6.22;;;1.20;;
70806;SDS011;58882;52.170;5.386;2022-07-03T06:26:19;8.55;;;1.40;;
70806;SDS011;58882;52.170;5.386;2022-07-03T06:29:06;6.72;;;1.30;;
70806;SDS011;58882;52.170;5.386;2022-07-03T06:31:46;5.32;;;1.30;;
70806;SDS011;58882;52.170;5.386;2022-07-03T06:34:33;5.53;;;1.40;;
70806;SDS011;58882;52.170;5.386;2022-07-03T06:37:14;4.80;;;1.08;;
70806;SDS011;58882;52.170;5.386;2022-07-03T06:40:08;2.88;;;1.10;;
70806;SDS011;58882;52.170;5.386;2022-07-03T06:42:49;4.65;;;1.10;;
70806;SDS011;58882;52.170;5.386;2022-07-03T06:45:36;4.60;;;1.13;;
70806;SDS011;58882;52.170;5.386;2022-07-03T06:48:16;4.35;;;1.20;;
70806;SDS011;58882;52.170;5.386;2022-07-03T06:51:03;5.68;;;1.15;;
70806;SDS011;58882;52.170;5.386;2022-07-03T06:53:36;5.20;;;1.20;;
70806;SDS011;58882;52.170;5.386;2022-07-03T06:56:30;5.30;;;1.13;;
70806;SDS011;58882;52.170;5.386;2022-07-03T06:59:10;7.97;;;1.30;;
70806;SDS011;58882;52.170;5.386;2022-07-03T07:02:04;6.60;;;1.20;;
70806;SDS011;58882;52.170;5.386;2022-07-03T07:04:38;6.13;;;1.30;;
70806;SDS011;58882;52.170;5.386;2022-07-03T07:07:32;3.78;;;1.08;;
70806;SDS011;58882;52.170;5.386;2022-07-03T07:10:05;2.90;;;1.20;;
70806;SDS011;58882;52.170;5.386;2022-07-03T07:13:00;6.53;;;1.45;;
70806;SDS011;58882;52.170;5.386;2022-07-03T07:15:33;2.90;;;1.00;;
70806;SDS011;58882;52.170;5.386;2022-07-03T07:18:27;4.72;;;1.20;;
70806;SDS011;58882;52.170;5.386;2022-07-03T07:21:07;3.75;;;1.15;;
70806;SDS011;58882;52.170;5.386;2022-07-03T07:23:55;3.53;;;1.25;;
70806;SDS011;58882;52.170;5.386;2022-07-03T07:26:35;4.90;;;1.30;;
70806;SDS011;58882;52.170;5.386;2022-07-03T07:29:29;6.35;;;1.27;;
70806;SDS011;58882;52.170;5.386;2022-07-03T07:32:16;2.95;;;1.10;;
70806;SDS011;58882;52.170;5.386;2022-07-03T07:34:56;6.22;;;1.33;;
70806;SDS011;58882;52.170;5.386;2022-07-03T07:37:43;4.82;;;1.20;;
70806;SDS011;58882;52.170;5.386;2022-07-03T07:40:23;7.70;;;1.35;;
70806;SDS011;58882;52.170;5.386;2022-07-03T07:43:10;5.80;;;1.30;;
70806;SDS011;58882;52.170;5.386;2022-07-03T07:45:50;4.07;;;1.20;;
70806;SDS011;58882;52.170;5.386;2022-07-03T07:48:37;5.30;;;1.27;;
70806;SDS011;58882;52.170;5.386;2022-07-03T07:51:18;5.90;;;1.27;;
70806;SDS011;58882;52.170;5.386;2022-07-03T07:54:05;6.80;;;1.10;;
70806;SDS011;58882;52.170;5.386;2022-07-03T07:56:45;7.10;;;1.25;;
70806;SDS011;58882;52.170;5.386;2022-07-03T07:59:32;4.68;;;1.10;;
70806;SDS011;58882;52.170;5.386;2022-07-03T08:02:16;5.78;;;1.23;;
70806;SDS011;58882;52.170;5.386;2022-07-03T08:05:28;4.47;;;1.35;;
70806;SDS011;58882;52.170;5.386;2022-07-03T08:08:09;5.95;;;1.00;;
70806;SDS011;58882;52.170;5.386;2022-07-03T08:11:08;4.55;;;1.17;;
70806;SDS011;58882;52.170;5.386;2022-07-03T08:13:48;3.58;;;1.10;;
70806;SDS011;58882;52.170;5.386;2022-07-03T08:16:35;3.65;;;1.23;;
70806;SDS011;58882;52.170;5.386;2022-07-03T08:19:17;5.47;;;1.52;;
70806;SDS011;58882;52.170;5.386;2022-07-03T08:22:04;4.18;;;1.10;;
70806;SDS011;58882;52.170;5.386;2022-07-03T08:24:44;4.68;;;1.30;;
70806;SDS011;58882;52.170;5.386;2022-07-03T08:27:31;8.02;;;1.30;;
70806;SDS011;58882;52.170;5.386;2022-07-03T08:30:11;4.97;;;1.30;;
70806;SDS011;58882;52.170;5.386;2022-07-03T08:33:06;6.57;;;1.17;;
70806;SDS011;58882;52.170;5.386;2022-07-03T08:35:46;8.95;;;1.42;;
70806;SDS011;58882;52.170;5.386;2022-07-03T08:38:34;4.45;;;0.98;;
70806;SDS011;58882;52.170;5.386;2022-07-03T08:41:15;2.38;;;1.00;;
70806;SDS011;58882;52.170;5.386;2022-07-03T08:44:02;5.70;;;1.00;;
70806;SDS011;58882;52.170;5.386;2022-07-03T08:46:43;3.40;;;1.02;;
70806;SDS011;58882;52.170;5.386;2022-07-03T08:49:40;5.78;;;1.13;;
70806;SDS011;58882;52.170;5.386;2022-07-03T08:52:26;6.10;;;1.40;;
70806;SDS011;58882;52.170;5.386;2022-07-03T08:55:14;3.15;;;1.20;;
70806;SDS011;58882;52.170;5.386;2022-07-03T08:58:06;4.78;;;1.00;;
70806;SDS011;58882;52.170;5.386;2022-07-03T09:00:58;4.25;;;1.17;;
70806;SDS011;58882;52.170;5.386;2022-07-03T09:03:38;2.70;;;1.10;;
70806;SDS011;58882;52.170;5.386;2022-07-03T09:06:26;3.45;;;1.00;;
70806;SDS011;58882;52.170;5.386;2022-07-03T09:09:13;3.10;;;1.23;;
70806;SDS011;58882;52.170;5.386;2022-07-03T09:12:00;2.92;;;1.13;;
70806;SDS011;58882;52.170;5.386;2022-07-03T09:14:40;5.78;;;1.10;;
70806;SDS011;58882;52.170;5.386;2022-07-03T09:17:27;3.45;;;1.10;;
70806;SDS011;58882;52.170;5.386;2022-07-03T09:20:07;2.88;;;0.90;;
70806;SDS011;58882;52.170;5.386;2022-07-03T09:22:54;3.20;;;1.00;;
70806;SDS011;58882;52.170;5.386;2022-07-03T09:25:57;4.57;;;1.10;;
70806;SDS011;58882;52.170;5.386;2022-07-03T09:28:52;1.80;;;0.90;;
70806;SDS011;58882;52.170;5.386;2022-07-03T09:31:40;1.63;;;0.90;;
70806;SDS011;58882;52.170;5.386;2022-07-03T09:34:34;2.55;;;0.82;;
70806;SDS011;58882;52.170;5.386;2022-07-03T09:37:07;3.03;;;1.10;;
70806;SDS011;58882;52.170;5.386;2022-07-03T09:40:01;3.70;;;1.20;;
70806;SDS011;58882;52.170;5.386;2022-07-03T09:43:02;3.05;;;0.90;;
70806;SDS011;58882;52.170;5.386;2022-07-03T09:45:57;5.13;;;1.50;;
70806;SDS011;58882;52.170;5.386;2022-07-03T09:48:40;1.70;;;0.88;;
70806;SDS011;58882;52.170;5.386;2022-07-03T09:51:28;4.72;;;1.33;;
70806;SDS011;58882;52.170;5.386;2022-07-03T09:54:08;3.33;;;1.20;;
70806;SDS011;58882;52.170;5.386;2022-07-03T09:57:01;2.92;;;1.10;;
70806;SDS011;58882;52.170;5.386;2022-07-03T09:59:59;2.63;;;1.05;;
70806;SDS011;58882;52.170;5.386;2022-07-03T10:03:03;3.10;;;1.30;;
70806;SDS011;58882;52.170;5.386;2022-07-03T10:05:42;3.30;;;1.10;;
70806;SDS011;58882;52.170;5.386;2022-07-03T10:08:36;3.15;;;1.05;;
70806;SDS011;58882;52.170;5.386;2022-07-03T10:11:17;4.22;;;1.10;;
70806;SDS011;58882;52.170;5.386;2022-07-03T10:14:15;4.07;;;1.13;;
70806;SDS011;58882;52.170;5.386;2022-07-03T10:16:59;3.15;;;1.00;;
70806;SDS011;58882;52.170;5.386;2022-07-03T10:19:53;3.25;;;1.30;;
70806;SDS011;58882;52.170;5.386;2022-07-03T10:22:34;2.88;;;1.00;;
70806;SDS011;58882;52.170;5.386;2022-07-03T10:25:31;3.58;;;1.30;;
70806;SDS011;58882;52.170;5.386;2022-07-03T10:28:05;5.22;;;1.10;;
70806;SDS011;58882;52.170;5.386;2022-07-03T10:31:00;2.92;;;1.08;;
70806;SDS011;58882;52.170;5.386;2022-07-03T10:33:40;2.30;;;1.00;;
70806;SDS011;58882;52.170;5.386;2022-07-03T10:36:28;3.05;;;1.20;;
70806;SDS011;58882;52.170;5.386;2022-07-03T10:39:10;2.58;;;0.93;;
70806;SDS011;58882;52.170;5.386;2022-07-03T10:42:08;4.32;;;1.00;;
70806;SDS011;58882;52.170;5.386;2022-07-03T10:45:10;2.13;;;1.10;;
70806;SDS011;58882;52.170;5.386;2022-07-03T10:47:57;2.28;;;1.10;;
70806;SDS011;58882;52.170;5.386;2022-07-03T10:50:37;3.83;;;1.35;;
70806;SDS011;58882;52.170;5.386;2022-07-03T10:53:24;1.75;;;1.00;;
70806;SDS011;58882;52.170;5.386;2022-07-03T10:56:04;2.58;;;1.40;;
70806;SDS011;58882;52.170;5.386;2022-07-03T10:58:57;4.30;;;1.30;;
70806;SDS011;58882;52.170;5.386;2022-07-03T11:01:38;2.38;;;1.13;;
70806;SDS011;58882;52.170;5.386;2022-07-03T11:04:25;3.15;;;1.10;;
70806;SDS011;58882;52.170;5.386;2022-07-03T11:15:54;5.28;;;1.38;;
70806;SDS011;58882;52.170;5.386;2022-07-03T11:18:34;5.20;;;1.40;;
70806;SDS011;58882;52.170;5.386;2022-07-03T11:21:31;2.22;;;1.20;;
70806;SDS011;58882;52.170;5.386;2022-07-03T11:27:35;2.47;;;1.10;;
70806;SDS011;58882;52.170;5.386;2022-07-03T11:30:17;3.00;;;1.30;;
70806;SDS011;58882;52.170;5.386;2022-07-03T11:33:04;2.15;;;1.20;;
70806;SDS011;58882;52.170;5.386;2022-07-03T11:35:45;4.30;;;1.30;;
70806;SDS011;58882;52.170;5.386;2022-07-03T11:38:45;3.47;;;1.20;;
70806;SDS011;58882;52.170;5.386;2022-07-03T11:41:19;2.40;;;1.15;;
70806;SDS011;58882;52.170;5.386;2022-07-03T11:44:14;5.30;;;1.58;;
70806;SDS011;58882;52.170;5.386;2022-07-03T11:46:55;3.40;;;1.30;;
70806;SDS011;58882;52.170;5.386;2022-07-03T11:49:49;4.18;;;1.10;;
70806;SDS011;58882;52.170;5.386;2022-07-03T11:52:32;3.20;;;1.17;;
70806;SDS011;58882;52.170;5.386;2022-07-03T11:55:27;6.90;;;1.40;;
70806;SDS011;58882;52.170;5.386;2022-07-03T11:58:00;4.03;;;1.38;;
70806;SDS011;58882;52.170;5.386;2022-07-03T12:00:54;4.25;;;1.40;;
70806;SDS011;58882;52.170;5.386;2022-07-03T12:03:34;3.50;;;1.35;;
70806;SDS011;58882;52.170;5.386;2022-07-03T12:06:21;5.65;;;1.50;;
70806;SDS011;58882;52.170;5.386;2022-07-03T12:09:02;4.07;;;1.40;;
70806;SDS011;58882;52.170;5.386;2022-07-03T12:12:00;3.60;;;1.05;;
70806;SDS011;58882;52.170;5.386;2022-07-03T12:17:31;5.70;;;1.35;;
70806;SDS011;58882;52.170;5.386;2022-07-03T12:20:11;3.20;;;1.30;;
70806;SDS011;58882;52.170;5.386;2022-07-03T12:22:58;2.75;;;1.20;;
70806;SDS011;58882;52.170;5.386;2022-07-03T12:25:38;3.72;;;1.30;;
70806;SDS011;58882;52.170;5.386;2022-07-03T12:28:33;3.65;;;1.20;;
70806;SDS011;58882;52.170;5.386;2022-07-03T12:31:20;5.45;;;1.48;;
70806;SDS011;58882;52.170;5.386;2022-07-03T12:34:16;5.90;;;1.40;;
70806;SDS011;58882;52.170;5.386;2022-07-03T12:36:59;3.90;;;1.50;;
70806;SDS011;58882;52.170;5.386;2022-07-03T12:39:47;3.63;;;1.35;;
70806;SDS011;58882;52.170;5.386;2022-07-03T12:42:27;3.50;;;1.23;;
70806;SDS011;58882;52.170;5.386;2022-07-03T12:45:25;3.83;;;1.33;;
70806;SDS011;58882;52.170;5.386;2022-07-03T12:48:06;4.10;;;1.40;;
70806;SDS011;58882;52.170;5.386;2022-07-03T12:50:53;5.60;;;1.40;;
70806;SDS011;58882;52.170;5.386;2022-07-03T12:53:37;3.83;;;1.40;;
70806;SDS011;58882;52.170;5.386;2022-07-03T12:56:31;4.72;;;1.45;;
70806;SDS011;58882;52.170;5.386;2022-07-03T12:59:24;3.05;;;1.20;;
70806;SDS011;58882;52.170;5.386;2022-07-03T13:02:14;3.95;;;1.30;;
70806;SDS011;58882;52.170;5.386;2022-07-03T13:08:06;4.05;;;1.20;;
70806;SDS011;58882;52.170;5.386;2022-07-03T13:10:56;2.80;;;1.23;;
70806;SDS011;58882;52.170;5.386;2022-07-03T13:13:50;2.63;;;1.40;;
70806;SDS011;58882;52.170;5.386;2022-07-03T13:16:27;3.05;;;1.20;;
70806;SDS011;58882;52.170;5.386;2022-07-03T13:19:22;4.30;;;1.17;;
70806;SDS011;58882;52.170;5.386;2022-07-03T13:22:17;3.30;;;1.10;;
70806;SDS011;58882;52.170;5.386;2022-07-03T13:24:57;2.15;;;1.23;;
70806;SDS011;58882;52.170;5.386;2022-07-03T13:27:44;3.03;;;1.13;;
70806;SDS011;58882;52.170;5.386;2022-07-03T13:30:24;2.83;;;1.30;;
70806;SDS011;58882;52.170;5.386;2022-07-03T13:33:11;5.53;;;1.40;;
70806;SDS011;58882;52.170;5.386;2022-07-03T13:35:51;3.85;;;1.17;;
70806;SDS011;58882;52.170;5.386;2022-07-03T13:38:38;1.95;;;1.13;;
70806;SDS011;58882;52.170;5.386;2022-07-03T13:41:18;3.38;;;1.45;;
70806;SDS011;58882;52.170;5.386;2022-07-03T13:44:05;4.90;;;1.50;;
70806;SDS011;58882;52.170;5.386;2022-07-03T13:49:35;3.17;;;1.35;;
70806;SDS011;58882;52.170;5.386;2022-07-03T13:52:16;2.30;;;1.20;;
70806;SDS011;58882;52.170;5.386;2022-07-03T13:55:03;3.47;;;1.30;;
70806;SDS011;58882;52.170;5.386;2022-07-03T13:57:44;3.83;;;1.40;;
70806;SDS011;58882;52.170;5.386;2022-07-03T14:00:38;3.58;;;1.40;;
70806;SDS011;58882;52.170;5.386;2022-07-03T14:03:18;4.20;;;1.33;;
70806;SDS011;58882;52.170;5.386;2022-07-03T14:06:05;5.95;;;1.60;;
70806;SDS011;58882;52.170;5.386;2022-07-03T14:08:45;4.03;;;1.33;;
70806;SDS011;58882;52.170;5.386;2022-07-03T14:11:32;3.35;;;1.15;;
70806;SDS011;58882;52.170;5.386;2022-07-03T14:14:12;1.85;;;1.10;;
70806;SDS011;58882;52.170;5.386;2022-07-03T14:17:06;2.90;;;1.13;;
70806;SDS011;58882;52.170;5.386;2022-07-03T14:19:46;4.32;;;1.40;;
70806;SDS011;58882;52.170;5.386;2022-07-03T14:22:33;2.17;;;1.15;;
70806;SDS011;58882;52.170;5.386;2022-07-03T14:25:13;2.97;;;1.13;;
70806;SDS011;58882;52.170;5.386;2022-07-03T14:28:07;2.63;;;1.20;;
70806;SDS011;58882;52.170;5.386;2022-07-03T14:31:12;2.38;;;1.20;;
70806;SDS011;58882;52.170;5.386;2022-07-03T14:34:06;3.53;;;1.05;;
70806;SDS011;58882;52.170;5.386;2022-07-03T14:36:39;4.90;;;1.30;;
70806;SDS011;58882;52.170;5.386;2022-07-03T14:39:33;2.42;;;1.10;;
70806;SDS011;58882;52.170;5.386;2022-07-03T14:42:14;3.05;;;1.08;;
70806;SDS011;58882;52.170;5.386;2022-07-03T14:45:01;1.95;;;1.10;;
70806;SDS011;58882;52.170;5.386;2022-07-03T14:47:41;2.80;;;1.20;;
70806;SDS011;58882;52.170;5.386;2022-07-03T14:50:28;2.53;;;1.20;;
70806;SDS011;58882;52.170;5.386;2022-07-03T14:53:08;3.20;;;1.35;;
70806;SDS011;58882;52.170;5.386;2022-07-03T14:55:55;4.45;;;1.20;;
70806;SDS011;58882;52.170;5.386;2022-07-03T14:58:36;3.03;;;1.00;;
70806;SDS011;58882;52.170;5.386;2022-07-03T15:01:34;3.15;;;1.30;;
70806;SDS011;58882;52.170;5.386;2022-07-03T15:04:20;3.58;;;1.30;;
70806;SDS011;58882;52.170;5.386;2022-07-03T15:08:06;3.65;;;1.27;;
70806;SDS011;58882;52.170;5.386;2022-07-03T15:11:21;2.35;;;1.20;;
70806;SDS011;58882;52.170;5.386;2022-07-03T15:14:17;4.05;;;1.20;;
70806;SDS011;58882;52.170;5.386;2022-07-03T15:17:20;4.10;;;1.10;;
70806;SDS011;58882;52.170;5.386;2022-07-03T15:20:01;4.65;;;1.10;;
70806;SDS011;58882;52.170;5.386;2022-07-03T15:22:50;4.10;;;1.20;;
70806;SDS011;58882;52.170;5.386;2022-07-03T15:25:33;3.05;;;1.35;;
70806;SDS011;58882;52.170;5.386;2022-07-03T15:28:22;3.75;;;1.30;;
70806;SDS011;58882;52.170;5.386;2022-07-03T15:31:05;3.90;;;1.23;;
70806;SDS011;58882;52.170;5.386;2022-07-03T15:34:03;3.65;;;1.30;;
70806;SDS011;58882;52.170;5.386;2022-07-03T15:36:45;3.65;;;1.38;;
70806;SDS011;58882;52.170;5.386;2022-07-03T15:42:38;2.55;;;1.02;;
70806;SDS011;58882;52.170;5.386;2022-07-03T15:45:47;4.00;;;1.20;;
70806;SDS011;58882;52.170;5.386;2022-07-03T15:51:55;3.25;;;1.40;;
70806;SDS011;58882;52.170;5.386;2022-07-03T15:55:06;3.50;;;1.20;;
70806;SDS011;58882;52.170;5.386;2022-07-03T15:58:03;3.97;;;1.20;;
70806;SDS011;58882;52.170;5.386;2022-07-03T16:00:44;2.10;;;1.00;;
70806;SDS011;58882;52.170;5.386;2022-07-03T16:04:10;2.97;;;1.25;;
70806;SDS011;58882;52.170;5.386;2022-07-03T16:09:50;3.50;;;1.27;;
70806;SDS011;58882;52.170;5.386;2022-07-03T16:12:37;4.35;;;1.25;;
70806;SDS011;58882;52.170;5.386;2022-07-03T16:15:24;3.55;;;1.40;;
70806;SDS011;58882;52.170;5.386;2022-07-03T16:18:02;3.63;;;1.40;;
70806;SDS011;58882;52.170;5.386;2022-07-03T16:20:56;5.32;;;1.33;;
70806;SDS011;58882;52.170;5.386;2022-07-03T16:23:40;2.63;;;1.10;;
70806;SDS011;58882;52.170;5.386;2022-07-03T16:26:36;5.53;;;1.50;;
70806;SDS011;58882;52.170;5.386;2022-07-03T16:29:09;3.10;;;1.33;;
70806;SDS011;58882;52.170;5.386;2022-07-03T16:32:03;4.82;;;1.60;;
70806;SDS011;58882;52.170;5.386;2022-07-03T16:37:56;3.60;;;1.75;;
70806;SDS011;58882;52.170;5.386;2022-07-03T16:40:39;2.75;;;1.30;;
70806;SDS011;58882;52.170;5.386;2022-07-03T16:43:39;2.75;;;1.27;;
70806;SDS011;58882;52.170;5.386;2022-07-03T16:46:24;3.63;;;1.13;;
70806;SDS011;58882;52.170;5.386;2022-07-03T16:49:23;3.75;;;1.23;;
70806;SDS011;58882;52.170;5.386;2022-07-03T16:52:09;4.45;;;1.17;;
70806;SDS011;58882;52.170;5.386;2022-07-03T16:55:04;4.40;;;1.30;;
70806;SDS011;58882;52.170;5.386;2022-07-03T16:57:49;5.88;;;1.30;;
70806;SDS011;58882;52.170;5.386;2022-07-03T17:00:43;3.83;;;1.35;;
70806;SDS011;58882;52.170;5.386;2022-07-03T17:03:24;4.07;;;1.50;;
70806;SDS011;58882;52.170;5.386;2022-07-03T17:06:11;3.38;;;1.17;;
70806;SDS011;58882;52.170;5.386;2022-07-03T17:08:44;2.78;;;1.13;;
70806;SDS011;58882;52.170;5.386;2022-07-03T17:11:40;3.17;;;1.25;;
70806;SDS011;58882;52.170;5.386;2022-07-03T17:14:20;4.63;;;1.38;;
70806;SDS011;58882;52.170;5.386;2022-07-03T17:17:10;4.03;;;1.10;;
70806;SDS011;58882;52.170;5.386;2022-07-03T17:19:59;2.42;;;1.10;;
70806;SDS011;58882;52.170;5.386;2022-07-03T17:23:09;3.63;;;1.17;;
70806;SDS011;58882;52.170;5.386;2022-07-03T17:26:01;3.83;;;1.23;;
70806;SDS011;58882;52.170;5.386;2022-07-03T17:28:59;5.18;;;1.23;;
70806;SDS011;58882;52.170;5.386;2022-07-03T17:31:51;2.53;;;1.10;;
70806;SDS011;58882;52.170;5.386;2022-07-03T17:34:48;3.83;;;1.05;;
70806;SDS011;58882;52.170;5.386;2022-07-03T17:37:30;5.90;;;1.27;;
70806;SDS011;58882;52.170;5.386;2022-07-03T17:40:24;4.72;;;1.20;;
70806;SDS011;58882;52.170;5.386;2022-07-03T17:43:04;2.72;;;1.13;;